createdAt,value
2022-11-12T04:00:58.932Z,15.13
2022-11-12T04:03:26.143Z,16.57
2022-11-12T04:06:12.015Z,15.37
2022-11-12T04:08:39.365Z,7.80
2022-11-12T04:11:13.019Z,11.63
2022-11-12T04:13:42.030Z,13.10
2022-11-12T04:16:33.074Z,9.83
2022-11-12T04:19:20.470Z,11.47
2022-11-12T04:21:56.036Z,9.23
2022-11-12T04:25:01.258Z,10.57
2022-11-12T04:27:34.391Z,11.20
2022-11-12T04:30:16.514Z,12.93
2022-11-12T04:32:56.921Z,13.37
2022-11-12T04:35:26.758Z,12.00
2022-11-12T04:37:54.563Z,10.77
2022-11-12T04:40:45.860Z,11.50
2022-11-12T04:43:35.839Z,21.33
2022-11-12T04:46:05.142Z,10.03
2022-11-12T04:48:32.419Z,6.80
2022-11-12T04:51:02.866Z,9.90
2022-11-12T04:53:30.976Z,11.40
2022-11-12T04:55:59.482Z,10.53
2022-11-12T04:58:26.983Z,5.50
2022-11-12T05:00:54.383Z,10.10
2022-11-12T05:03:21.709Z,15.53
2022-11-12T05:05:48.893Z,9.17
2022-11-12T05:08:16.073Z,10.83
2022-11-12T05:10:44.635Z,13.13
2022-11-12T05:13:11.743Z,19.87
2022-11-12T05:15:38.898Z,10.47
2022-11-12T05:18:06.096Z,10.37
2022-11-12T05:20:34.656Z,6.63
2022-11-12T05:23:08.927Z,15.03
2022-11-12T05:25:36.490Z,15.20
2022-11-12T05:28:05.637Z,19.67
2022-11-12T05:30:34.109Z,16.77
2022-11-12T05:33:01.223Z,21.10
2022-11-12T05:35:28.393Z,12.00
2022-11-12T05:37:55.558Z,11.70
2022-11-12T05:40:22.699Z,11.47
2022-11-12T05:42:49.865Z,6.03
2022-11-12T05:45:17.135Z,15.27
2022-11-12T05:47:44.332Z,13.00
2022-11-12T05:50:11.643Z,13.37
2022-11-12T05:52:38.783Z,11.33
2022-11-12T05:55:06.415Z,10.40
2022-11-12T05:57:33.590Z,8.63
2022-11-12T06:00:00.706Z,10.80
2022-11-12T06:02:27.861Z,12.87
2022-11-12T06:04:55.039Z,11.47
2022-11-12T06:07:22.252Z,9.37
2022-11-12T06:09:49.447Z,8.67
2022-11-12T06:12:16.581Z,14.87
2022-11-12T06:14:43.702Z,9.80
2022-11-12T06:17:10.868Z,7.33
2022-11-12T06:19:37.994Z,12.37
2022-11-12T06:22:05.229Z,11.97
2022-11-12T06:24:35.306Z,8.83
2022-11-12T06:27:02.831Z,9.53
2022-11-12T06:29:30.262Z,8.77
2022-11-12T06:31:57.415Z,8.67
2022-11-12T06:34:24.657Z,10.43
2022-11-12T06:36:51.837Z,8.13
2022-11-12T06:39:19.103Z,11.30
2022-11-12T06:41:46.300Z,10.23
2022-11-12T06:44:16.621Z,10.30
2022-11-12T06:46:48.038Z,12.37
2022-11-12T06:49:15.333Z,11.20
2022-11-12T06:51:42.541Z,9.63
2022-11-12T06:54:09.677Z,14.33
2022-11-12T06:56:36.870Z,9.70
2022-11-12T06:59:04.023Z,6.20
2022-11-12T07:01:31.301Z,6.00
2022-11-12T07:03:58.738Z,7.07
2022-11-12T07:06:25.888Z,7.63
2022-11-12T07:08:53.133Z,7.30
2022-11-12T07:11:20.950Z,7.63
2022-11-12T07:13:48.655Z,8.43
2022-11-12T07:16:18.615Z,7.30
2022-11-12T07:18:47.014Z,10.77
2022-11-12T07:21:20.007Z,7.47
2022-11-12T07:23:47.782Z,12.10
2022-11-12T07:26:16.534Z,13.07
2022-11-12T07:28:45.061Z,7.30
2022-11-12T07:31:13.911Z,9.13
2022-11-12T07:33:41.932Z,5.23
2022-11-12T07:36:10.630Z,5.33
2022-11-12T07:38:39.711Z,6.97
2022-11-12T07:41:15.428Z,7.27
2022-11-12T07:43:44.988Z,9.67
2022-11-12T07:46:15.134Z,9.50
2022-11-12T07:48:42.663Z,8.13
2022-11-12T07:51:31.532Z,7.70
2022-11-12T07:54:00.036Z,5.23
2022-11-12T07:56:28.530Z,6.97
2022-11-12T07:58:55.855Z,6.37
2022-11-12T08:01:32.036Z,8.67
2022-11-12T08:04:01.000Z,7.03
2022-11-12T08:06:29.682Z,7.10
2022-11-12T08:08:58.696Z,9.10
2022-11-12T08:11:25.933Z,9.80
2022-11-12T08:13:53.399Z,12.70
2022-11-12T08:16:20.725Z,13.23
2022-11-12T08:18:48.303Z,8.00
2022-11-12T08:21:17.019Z,9.07
2022-11-12T08:23:44.729Z,8.93
2022-11-12T08:26:14.065Z,10.57
2022-11-12T08:28:41.788Z,10.50
2022-11-12T08:31:22.834Z,10.40
2022-11-12T08:33:50.052Z,8.13
2022-11-12T08:36:18.517Z,10.30
2022-11-12T08:38:46.044Z,12.10
2022-11-12T08:41:14.896Z,12.10
2022-11-12T08:43:42.569Z,11.17
2022-11-12T08:46:10.192Z,10.13
2022-11-12T08:48:39.985Z,8.20
2022-11-12T08:51:07.900Z,12.77
2022-11-12T08:53:35.283Z,9.97
2022-11-12T08:56:02.601Z,11.57
2022-11-12T08:58:30.138Z,10.87
2022-11-12T09:01:03.337Z,11.00
2022-11-12T09:03:30.429Z,9.83
2022-11-12T09:05:57.635Z,7.60
2022-11-12T09:08:25.894Z,9.20
2022-11-12T09:10:53.358Z,8.47
2022-11-12T09:13:20.800Z,8.80
2022-11-12T09:15:48.178Z,9.00
2022-11-12T09:18:18.445Z,10.20
2022-11-12T09:20:46.216Z,11.13
2022-11-12T09:23:15.715Z,8.97
2022-11-12T09:25:43.498Z,8.80
2022-11-12T09:28:15.804Z,10.90
2022-11-12T09:30:46.486Z,12.13
2022-11-12T09:33:19.521Z,9.53
2022-11-12T09:35:47.710Z,7.50
2022-11-12T09:38:15.598Z,8.43
2022-11-12T09:40:51.949Z,10.60
2022-11-12T09:43:24.655Z,9.13
2022-11-12T09:46:13.562Z,8.13
2022-11-12T09:48:46.458Z,6.97
2022-11-12T09:51:39.225Z,7.25
2022-11-12T09:54:17.585Z,7.28
2022-11-12T09:56:45.017Z,7.93
2022-11-12T09:59:13.175Z,7.13
2022-11-12T10:01:49.174Z,5.57
2022-11-12T10:04:19.316Z,7.53
2022-11-12T10:07:11.871Z,7.53
2022-11-12T10:10:16.364Z,6.78
2022-11-12T10:13:07.591Z,6.35
2022-11-12T10:16:09.083Z,8.50
2022-11-12T10:19:08.143Z,9.00
2022-11-12T10:21:46.495Z,9.77
2022-11-12T10:24:13.711Z,7.05
2022-11-12T10:26:41.040Z,11.55
2022-11-12T10:29:11.030Z,8.82
2022-11-12T10:31:38.982Z,7.30
2022-11-12T10:34:11.907Z,6.93
2022-11-12T10:36:42.591Z,8.00
2022-11-12T10:39:09.880Z,6.70
2022-11-12T10:41:37.085Z,7.20
2022-11-12T10:44:06.388Z,7.72
2022-11-12T10:46:36.817Z,9.98
2022-11-12T10:49:25.815Z,6.80
2022-11-12T10:51:59.491Z,10.57
2022-11-12T10:54:38.133Z,11.18
2022-11-12T10:57:26.396Z,13.38
2022-11-12T11:00:12.700Z,10.40
2022-11-12T11:02:55.833Z,11.30
2022-11-12T11:05:34.787Z,13.52
2022-11-12T11:08:03.432Z,13.95
2022-11-12T11:10:37.432Z,10.52
2022-11-12T11:13:22.691Z,14.02
2022-11-12T11:16:08.153Z,11.57
2022-11-12T11:18:38.720Z,10.13
2022-11-12T11:21:30.450Z,9.90
2022-11-12T11:24:03.005Z,10.35
2022-11-12T11:27:02.556Z,7.38
2022-11-12T11:29:32.625Z,8.02
2022-11-12T11:32:18.774Z,9.80
2022-11-12T11:34:59.576Z,7.05
2022-11-12T11:37:32.501Z,11.18
2022-11-12T11:40:26.808Z,15.35
2022-11-12T11:43:22.858Z,7.25
2022-11-12T11:45:49.966Z,6.88
2022-11-12T11:48:35.711Z,11.55
2022-11-12T11:51:35.038Z,6.63
2022-11-12T11:54:28.298Z,12.02
2022-11-12T11:57:00.145Z,9.23
2022-11-12T11:59:45.804Z,8.70
2022-11-12T12:02:41.083Z,9.13
2022-11-12T12:05:30.935Z,7.80
2022-11-12T12:08:24.965Z,6.97
2022-11-12T12:11:08.993Z,7.50
2022-11-12T12:13:42.245Z,5.40
2022-11-12T12:16:26.874Z,6.53
2022-11-12T12:19:06.399Z,6.63
2022-11-12T12:21:38.933Z,9.38
2022-11-12T12:24:10.924Z,7.40
2022-11-12T12:26:54.280Z,7.15
2022-11-12T12:29:40.800Z,6.57
2022-11-12T12:32:13.962Z,7.75
2022-11-12T12:34:48.658Z,8.57
2022-11-12T12:37:54.320Z,9.15
2022-11-12T12:40:28.956Z,6.95
2022-11-12T12:43:04.875Z,6.57
2022-11-12T12:45:42.180Z,7.18
2022-11-12T12:48:19.391Z,15.43
2022-11-12T12:50:48.396Z,12.63
2022-11-12T12:53:17.154Z,7.70
2022-11-12T12:55:47.545Z,7.57
2022-11-12T12:58:42.798Z,10.93
2022-11-12T13:01:24.697Z,6.20
2022-11-12T13:04:08.958Z,6.13
2022-11-12T13:06:46.576Z,4.38
2022-11-12T13:09:14.730Z,12.52
2022-11-12T13:12:02.126Z,7.40
2022-11-12T13:14:34.941Z,7.15
2022-11-12T13:17:05.214Z,5.22
2022-11-12T13:19:34.615Z,5.38
2022-11-12T13:22:19.977Z,9.57
2022-11-12T13:25:02.269Z,6.50
2022-11-12T13:27:39.602Z,7.15
2022-11-12T13:30:13.353Z,9.48
2022-11-12T13:32:46.584Z,7.68
2022-11-12T13:35:22.395Z,10.30
2022-11-12T13:37:56.223Z,7.88
2022-11-12T13:40:23.388Z,7.85
2022-11-12T13:42:51.477Z,7.32
2022-11-12T13:45:21.810Z,14.90
2022-11-12T13:47:49.093Z,8.05
2022-11-12T13:50:22.644Z,8.98
2022-11-12T13:52:50.054Z,8.85
2022-11-12T13:55:20.186Z,11.98
2022-11-12T13:57:56.419Z,10.52
2022-11-12T14:00:25.546Z,9.50
2022-11-12T14:02:58.926Z,12.48
2022-11-12T14:05:31.833Z,14.95
2022-11-12T14:08:07.618Z,9.63
2022-11-12T14:10:45.767Z,14.35
2022-11-12T14:13:34.699Z,17.90
2022-11-12T14:16:47.522Z,10.27
2022-11-12T14:19:45.209Z,14.13
2022-11-12T14:22:20.794Z,10.90
2022-11-12T14:24:59.047Z,12.20
2022-11-12T14:27:29.142Z,9.65
2022-11-12T14:30:08.678Z,9.35
2022-11-12T14:32:41.563Z,9.20
2022-11-12T14:35:29.859Z,12.27
2022-11-12T14:38:15.501Z,9.52
2022-11-12T14:41:07.521Z,9.18
2022-11-12T14:43:45.372Z,13.90
2022-11-12T14:46:44.352Z,14.80
2022-11-12T14:49:43.925Z,15.00
2022-11-12T14:52:26.852Z,13.52
2022-11-12T14:54:59.448Z,11.57
2022-11-12T14:57:31.659Z,9.13
2022-11-12T14:59:59.144Z,9.63
2022-11-12T15:02:50.327Z,10.65
2022-11-12T15:05:22.128Z,12.18
2022-11-12T15:07:57.017Z,9.68
2022-11-12T15:10:33.611Z,10.13
2022-11-12T15:13:20.496Z,13.68
2022-11-12T15:16:03.742Z,14.02
2022-11-12T15:18:32.153Z,10.57
2022-11-12T15:21:27.931Z,13.60
2022-11-12T15:24:19.793Z,12.68
2022-11-12T15:26:50.586Z,10.30
2022-11-12T15:29:28.465Z,12.38
2022-11-12T15:31:57.525Z,9.20
2022-11-12T15:34:33.073Z,9.63
2022-11-12T15:37:06.867Z,14.13
2022-11-12T15:39:41.659Z,15.45
2022-11-12T15:42:27.224Z,13.20
2022-11-12T15:45:00.726Z,16.73
2022-11-12T15:47:30.807Z,15.50
2022-11-12T15:49:59.136Z,11.73
2022-11-12T15:52:26.963Z,11.57
2022-11-12T15:54:54.318Z,12.48
2022-11-12T15:57:27.578Z,10.98
2022-11-12T16:00:08.343Z,13.70
2022-11-12T16:02:36.253Z,12.68
2022-11-12T16:05:03.488Z,13.95
2022-11-12T16:07:33.700Z,13.85
2022-11-12T16:10:00.931Z,8.65
2022-11-12T16:12:28.242Z,13.57
2022-11-12T16:14:55.742Z,26.50
2022-11-12T16:17:22.985Z,13.40
2022-11-12T16:19:50.147Z,9.48
2022-11-12T16:22:17.303Z,15.57
2022-11-12T16:24:44.449Z,20.52
2022-11-12T16:27:16.047Z,17.60
2022-11-12T16:29:43.230Z,15.32
2022-11-12T16:32:14.322Z,15.52
2022-11-12T16:34:41.530Z,14.05
2022-11-12T16:37:12.387Z,10.27
2022-11-12T16:39:40.159Z,14.80
2022-11-12T16:42:10.037Z,21.80
2022-11-12T16:44:37.286Z,15.10
2022-11-12T16:47:10.828Z,11.63
2022-11-12T16:49:39.010Z,16.83
2022-11-12T16:52:09.036Z,14.15
2022-11-12T16:54:36.200Z,14.82
2022-11-12T16:57:03.951Z,12.35
2022-11-12T16:59:31.458Z,12.32
2022-11-12T17:01:58.771Z,12.55
2022-11-12T17:04:26.425Z,35.97
2022-11-12T17:06:53.692Z,14.80
2022-11-12T17:09:24.039Z,14.87
2022-11-12T17:11:51.384Z,12.90
2022-11-12T17:14:22.016Z,15.75
2022-11-12T17:16:51.446Z,11.70
2022-11-12T17:19:18.712Z,46.78
2022-11-12T17:21:45.949Z,16.40
2022-11-12T17:24:13.543Z,12.67
2022-11-12T17:26:41.030Z,13.53
2022-11-12T17:29:08.703Z,14.30
2022-11-12T17:31:36.186Z,69.10
2022-11-12T17:34:07.816Z,103.57
2022-11-12T17:36:38.095Z,110.20
2022-11-12T17:39:11.906Z,33.92
2022-11-12T17:41:39.485Z,39.53
2022-11-12T17:44:06.705Z,31.60
2022-11-12T17:46:35.922Z,175.20
2022-11-12T17:49:03.857Z,118.60
2022-11-12T17:51:31.072Z,106.33
2022-11-12T17:53:58.255Z,60.55
2022-11-12T17:56:25.385Z,68.82
2022-11-12T17:58:53.163Z,107.55
2022-11-12T18:01:26.067Z,89.78
2022-11-12T18:03:56.055Z,98.17
2022-11-12T18:06:28.971Z,148.67
2022-11-12T18:08:58.268Z,129.10
2022-11-12T18:11:27.264Z,178.00
2022-11-12T18:13:54.701Z,85.23
2022-11-12T18:16:23.881Z,82.80
2022-11-12T18:18:53.393Z,55.88
2022-11-12T18:21:20.610Z,75.40
2022-11-12T18:23:47.856Z,81.70
2022-11-12T18:26:18.272Z,121.87
2022-11-12T18:28:50.481Z,43.47
2022-11-12T18:31:17.881Z,62.77
2022-11-12T18:33:45.103Z,54.77
2022-11-12T18:36:20.977Z,34.05
2022-11-12T18:38:50.115Z,107.93
2022-11-12T18:41:19.520Z,33.37
2022-11-12T18:43:46.952Z,35.63
2022-11-12T18:46:14.295Z,38.90
2022-11-12T18:48:41.746Z,28.73
2022-11-12T18:51:10.981Z,89.13
2022-11-12T18:53:39.353Z,46.30
2022-11-12T18:56:10.396Z,121.17
2022-11-12T18:58:37.595Z,39.83
2022-11-12T19:01:06.764Z,60.33
2022-11-12T19:03:34.741Z,42.20
2022-11-12T19:06:03.777Z,48.78
2022-11-12T19:08:31.401Z,156.73
2022-11-12T19:11:06.623Z,28.90
2022-11-12T19:13:34.148Z,88.20
2022-11-12T19:16:12.883Z,56.63
2022-11-12T19:18:44.505Z,71.40
2022-11-12T19:21:13.445Z,38.90
2022-11-12T19:23:43.724Z,41.87
2022-11-12T19:26:17.646Z,43.20
2022-11-12T19:28:45.566Z,43.10
2022-11-12T19:31:18.281Z,42.77
2022-11-12T19:33:46.717Z,22.80
2022-11-12T19:36:18.852Z,46.60
2022-11-12T19:38:46.225Z,24.23
2022-11-12T19:41:19.425Z,27.97
2022-11-12T19:43:47.869Z,21.70
2022-11-12T19:46:15.654Z,22.07
2022-11-12T19:48:43.326Z,21.37
2022-11-12T19:51:12.087Z,41.67
2022-11-12T19:53:44.284Z,53.67
2022-11-12T19:56:13.972Z,29.50
2022-11-12T19:58:46.031Z,64.13
2022-11-12T20:01:16.083Z,63.53
2022-11-12T20:03:43.424Z,19.03
2022-11-12T20:06:11.916Z,24.57
2022-11-12T20:08:39.555Z,31.67
2022-11-12T20:11:06.766Z,31.97
2022-11-12T20:13:34.423Z,58.55
2022-11-12T20:16:18.479Z,32.03
2022-11-12T20:18:53.445Z,47.63
2022-11-12T20:21:20.641Z,60.27
2022-11-12T20:23:47.986Z,18.00
2022-11-12T20:26:16.071Z,42.90
2022-11-12T20:28:43.866Z,47.90
2022-11-12T20:31:21.023Z,18.03
2022-11-12T20:33:50.109Z,18.63
2022-11-12T20:36:21.873Z,40.33
2022-11-12T20:38:50.258Z,108.50
2022-11-12T20:41:26.033Z,81.57
2022-11-12T20:43:57.769Z,30.80
2022-11-12T20:46:25.688Z,30.90
2022-11-12T20:48:56.180Z,26.73
2022-11-12T20:51:26.072Z,27.40
2022-11-12T20:53:59.884Z,56.53
2022-11-12T20:56:29.261Z,44.73
2022-11-12T20:58:57.705Z,34.53
2022-11-12T21:01:26.189Z,35.37
2022-11-12T21:03:54.444Z,30.77
2022-11-12T21:06:24.802Z,37.07
2022-11-12T21:08:52.283Z,70.17
2022-11-12T21:11:22.395Z,24.83
2022-11-12T21:13:50.211Z,89.07
2022-11-12T21:16:17.471Z,62.03
2022-11-12T21:18:44.648Z,16.67
2022-11-12T21:21:14.641Z,23.70
2022-11-12T21:23:46.542Z,20.03
2022-11-12T21:26:18.548Z,42.20
2022-11-12T21:28:50.962Z,61.43
2022-11-12T21:31:29.796Z,41.97
2022-11-12T21:34:00.291Z,103.80
2022-11-12T21:36:28.718Z,32.67
2022-11-12T21:38:56.207Z,13.60
2022-11-12T21:41:26.397Z,26.87
2022-11-12T21:43:54.132Z,37.23
2022-11-12T21:46:30.027Z,28.27
2022-11-12T21:48:57.350Z,36.00
2022-11-12T21:51:29.923Z,21.57
2022-11-12T21:53:59.496Z,58.63
2022-11-12T21:56:27.805Z,46.20
2022-11-12T21:59:00.326Z,21.60
